sensor_id;sensor_type;location;lat;lon;timestamp;P1;durP1;ratioP1;P2;durP2;ratioP2
19231;SDS011;9750;48.730;10.294;2024-02-15T00:02:23;3.50;;;2.97;;
19231;SDS011;9750;48.730;10.294;2024-02-15T00:04:50;3.80;;;3.00;;
19231;SDS011;9750;48.730;10.294;2024-02-15T00:07:17;4.53;;;3.23;;
19231;SDS011;9750;48.730;10.294;2024-02-15T00:09:48;4.00;;;3.17;;
19231;SDS011;9750;48.730;10.294;2024-02-15T00:12:16;4.47;;;3.07;;
19231;SDS011;9750;48.730;10.294;2024-02-15T00:14:44;3.33;;;2.60;;
19231;SDS011;9750;48.730;10.294;2024-02-15T00:17:11;4.07;;;2.80;;
19231;SDS011;9750;48.730;10.294;2024-02-15T00:19:38;3.33;;;3.00;;
19231;SDS011;9750;48.730;10.294;2024-02-15T00:22:06;3.50;;;2.90;;
19231;SDS011;9750;48.730;10.294;2024-02-15T00:24:36;4.80;;;3.20;;
19231;SDS011;9750;48.730;10.294;2024-02-15T00:27:05;4.10;;;3.00;;
19231;SDS011;9750;48.730;10.294;2024-02-15T00:29:32;4.03;;;2.80;;
19231;SDS011;9750;48.730;10.294;2024-02-15T00:32:00;4.47;;;3.20;;
19231;SDS011;9750;48.730;10.294;2024-02-15T00:34:28;5.03;;;2.93;;
19231;SDS011;9750;48.730;10.294;2024-02-15T00:36:56;4.80;;;2.63;;
19231;SDS011;9750;48.730;10.294;2024-02-15T00:39:23;3.60;;;3.00;;
19231;SDS011;9750;48.730;10.294;2024-02-15T00:41:50;6.53;;;2.90;;
19231;SDS011;9750;48.730;10.294;2024-02-15T00:44:19;3.30;;;2.87;;
19231;SDS011;9750;48.730;10.294;2024-02-15T00:46:46;3.27;;;2.63;;
19231;SDS011;9750;48.730;10.294;2024-02-15T00:49:14;3.00;;;2.70;;
19231;SDS011;9750;48.730;10.294;2024-02-15T00:51:41;3.50;;;2.77;;
19231;SDS011;9750;48.730;10.294;2024-02-15T00:54:09;3.13;;;2.50;;
19231;SDS011;9750;48.730;10.294;2024-02-15T00:56:36;3.83;;;2.80;;
19231;SDS011;9750;48.730;10.294;2024-02-15T00:59:03;4.33;;;2.70;;
19231;SDS011;9750;48.730;10.294;2024-02-15T01:01:33;2.70;;;2.30;;
19231;SDS011;9750;48.730;10.294;2024-02-15T01:04:02;3.30;;;2.40;;
19231;SDS011;9750;48.730;10.294;2024-02-15T01:06:29;3.30;;;2.77;;
19231;SDS011;9750;48.730;10.294;2024-02-15T01:08:58;4.30;;;2.57;;
19231;SDS011;9750;48.730;10.294;2024-02-15T01:11:26;3.53;;;2.63;;
19231;SDS011;9750;48.730;10.294;2024-02-15T01:13:54;2.87;;;2.43;;
19231;SDS011;9750;48.730;10.294;2024-02-15T01:16:21;3.03;;;2.30;;
19231;SDS011;9750;48.730;10.294;2024-02-15T01:18:51;2.73;;;2.50;;
19231;SDS011;9750;48.730;10.294;2024-02-15T01:21:18;3.67;;;2.70;;
19231;SDS011;9750;48.730;10.294;2024-02-15T01:23:47;2.90;;;2.50;;
19231;SDS011;9750;48.730;10.294;2024-02-15T01:28:59;3.67;;;2.87;;
19231;SDS011;9750;48.730;10.294;2024-02-15T01:31:28;5.43;;;2.60;;
19231;SDS011;9750;48.730;10.294;2024-02-15T01:33:57;3.13;;;2.77;;
19231;SDS011;9750;48.730;10.294;2024-02-15T01:36:24;3.23;;;2.70;;
19231;SDS011;9750;48.730;10.294;2024-02-15T01:38:51;3.23;;;2.43;;
19231;SDS011;9750;48.730;10.294;2024-02-15T01:41:19;2.90;;;2.50;;
19231;SDS011;9750;48.730;10.294;2024-02-15T01:43:46;2.63;;;2.43;;
19231;SDS011;9750;48.730;10.294;2024-02-15T01:46:15;3.07;;;2.73;;
19231;SDS011;9750;48.730;10.294;2024-02-15T01:48:43;4.30;;;2.47;;
19231;SDS011;9750;48.730;10.294;2024-02-15T01:51:13;3.97;;;3.03;;
19231;SDS011;9750;48.730;10.294;2024-02-15T01:53:41;3.43;;;2.93;;
19231;SDS011;9750;48.730;10.294;2024-02-15T01:56:09;3.87;;;2.90;;
19231;SDS011;9750;48.730;10.294;2024-02-15T01:58:40;4.53;;;2.63;;
19231;SDS011;9750;48.730;10.294;2024-02-15T02:01:10;3.40;;;2.63;;
19231;SDS011;9750;48.730;10.294;2024-02-15T02:03:39;3.50;;;2.60;;
19231;SDS011;9750;48.730;10.294;2024-02-15T02:08:45;6.77;;;3.10;;
19231;SDS011;9750;48.730;10.294;2024-02-15T02:11:12;2.80;;;2.50;;
19231;SDS011;9750;48.730;10.294;2024-02-15T02:13:40;4.00;;;2.90;;
19231;SDS011;9750;48.730;10.294;2024-02-15T02:19:05;2.73;;;2.53;;
19231;SDS011;9750;48.730;10.294;2024-02-15T02:21:36;2.87;;;2.60;;
19231;SDS011;9750;48.730;10.294;2024-02-15T02:24:07;3.77;;;2.83;;
19231;SDS011;9750;48.730;10.294;2024-02-15T02:26:40;4.47;;;2.87;;
19231;SDS011;9750;48.730;10.294;2024-02-15T02:29:08;3.20;;;2.47;;
19231;SDS011;9750;48.730;10.294;2024-02-15T02:31:36;3.27;;;2.97;;
19231;SDS011;9750;48.730;10.294;2024-02-15T02:34:03;3.03;;;2.70;;
19231;SDS011;9750;48.730;10.294;2024-02-15T02:36:31;3.17;;;2.47;;
19231;SDS011;9750;48.730;10.294;2024-02-15T02:38:59;3.83;;;2.60;;
19231;SDS011;9750;48.730;10.294;2024-02-15T02:41:26;3.17;;;2.70;;
19231;SDS011;9750;48.730;10.294;2024-02-15T02:43:56;3.40;;;2.67;;
19231;SDS011;9750;48.730;10.294;2024-02-15T02:46:23;3.50;;;2.77;;
19231;SDS011;9750;48.730;10.294;2024-02-15T02:48:51;2.80;;;2.40;;
19231;SDS011;9750;48.730;10.294;2024-02-15T02:51:18;4.67;;;2.60;;
19231;SDS011;9750;48.730;10.294;2024-02-15T02:53:45;3.10;;;2.37;;
19231;SDS011;9750;48.730;10.294;2024-02-15T02:59:33;2.90;;;2.30;;
19231;SDS011;9750;48.730;10.294;2024-02-15T03:02:01;4.43;;;2.50;;
19231;SDS011;9750;48.730;10.294;2024-02-15T03:04:29;3.90;;;2.40;;
19231;SDS011;9750;48.730;10.294;2024-02-15T03:06:57;2.93;;;2.43;;
19231;SDS011;9750;48.730;10.294;2024-02-15T03:09:24;2.90;;;2.40;;
19231;SDS011;9750;48.730;10.294;2024-02-15T03:11:54;2.87;;;2.53;;
19231;SDS011;9750;48.730;10.294;2024-02-15T03:14:23;2.87;;;2.33;;
19231;SDS011;9750;48.730;10.294;2024-02-15T03:16:51;2.37;;;2.17;;
19231;SDS011;9750;48.730;10.294;2024-02-15T03:19:20;2.40;;;2.13;;
19231;SDS011;9750;48.730;10.294;2024-02-15T03:21:49;4.30;;;2.23;;
19231;SDS011;9750;48.730;10.294;2024-02-15T03:24:18;4.27;;;2.17;;
19231;SDS011;9750;48.730;10.294;2024-02-15T03:26:45;2.40;;;2.20;;
19231;SDS011;9750;48.730;10.294;2024-02-15T03:29:13;3.20;;;2.17;;
19231;SDS011;9750;48.730;10.294;2024-02-15T03:31:40;2.87;;;1.90;;
19231;SDS011;9750;48.730;10.294;2024-02-15T03:34:09;3.00;;;2.00;;
19231;SDS011;9750;48.730;10.294;2024-02-15T03:36:39;3.77;;;2.00;;
19231;SDS011;9750;48.730;10.294;2024-02-15T03:39:07;2.17;;;1.97;;
19231;SDS011;9750;48.730;10.294;2024-02-15T03:41:34;3.83;;;2.30;;
19231;SDS011;9750;48.730;10.294;2024-02-15T03:44:00;4.43;;;2.00;;
19231;SDS011;9750;48.730;10.294;2024-02-15T03:46:28;2.87;;;1.90;;
19231;SDS011;9750;48.730;10.294;2024-02-15T03:48:55;2.67;;;1.97;;
19231;SDS011;9750;48.730;10.294;2024-02-15T03:51:24;3.10;;;2.07;;
19231;SDS011;9750;48.730;10.294;2024-02-15T03:53:51;3.93;;;2.20;;
19231;SDS011;9750;48.730;10.294;2024-02-15T03:56:19;3.33;;;1.70;;
19231;SDS011;9750;48.730;10.294;2024-02-15T03:58:46;2.97;;;2.00;;
19231;SDS011;9750;48.730;10.294;2024-02-15T04:01:15;2.53;;;1.90;;
19231;SDS011;9750;48.730;10.294;2024-02-15T04:03:43;3.03;;;1.90;;
19231;SDS011;9750;48.730;10.294;2024-02-15T04:09:06;2.83;;;2.00;;
19231;SDS011;9750;48.730;10.294;2024-02-15T04:11:35;2.30;;;1.93;;
19231;SDS011;9750;48.730;10.294;2024-02-15T04:14:04;2.93;;;1.77;;
19231;SDS011;9750;48.730;10.294;2024-02-15T04:16:31;4.20;;;1.90;;
19231;SDS011;9750;48.730;10.294;2024-02-15T04:19:01;3.27;;;1.70;;
19231;SDS011;9750;48.730;10.294;2024-02-15T04:21:29;2.67;;;1.80;;
19231;SDS011;9750;48.730;10.294;2024-02-15T04:23:58;3.93;;;1.83;;
19231;SDS011;9750;48.730;10.294;2024-02-15T04:26:25;2.60;;;2.03;;
19231;SDS011;9750;48.730;10.294;2024-02-15T04:28:55;2.57;;;1.87;;
19231;SDS011;9750;48.730;10.294;2024-02-15T04:31:23;6.03;;;3.23;;
19231;SDS011;9750;48.730;10.294;2024-02-15T04:33:52;5.77;;;4.47;;
19231;SDS011;9750;48.730;10.294;2024-02-15T04:36:19;5.23;;;4.47;;
19231;SDS011;9750;48.730;10.294;2024-02-15T04:38:50;7.23;;;4.57;;
19231;SDS011;9750;48.730;10.294;2024-02-15T04:41:19;7.77;;;4.00;;
19231;SDS011;9750;48.730;10.294;2024-02-15T04:43:48;4.90;;;3.17;;
19231;SDS011;9750;48.730;10.294;2024-02-15T04:49:01;3.57;;;2.30;;
19231;SDS011;9750;48.730;10.294;2024-02-15T04:51:29;3.40;;;2.20;;
19231;SDS011;9750;48.730;10.294;2024-02-15T04:53:57;2.90;;;2.30;;
19231;SDS011;9750;48.730;10.294;2024-02-15T04:56:28;3.90;;;2.13;;
19231;SDS011;9750;48.730;10.294;2024-02-15T04:58:58;4.50;;;2.00;;
19231;SDS011;9750;48.730;10.294;2024-02-15T05:01:25;4.90;;;1.93;;
19231;SDS011;9750;48.730;10.294;2024-02-15T05:03:54;2.70;;;1.80;;
19231;SDS011;9750;48.730;10.294;2024-02-15T05:06:21;3.63;;;2.10;;
19231;SDS011;9750;48.730;10.294;2024-02-15T05:08:49;2.27;;;1.70;;
19231;SDS011;9750;48.730;10.294;2024-02-15T05:11:16;2.83;;;2.00;;
19231;SDS011;9750;48.730;10.294;2024-02-15T05:13:46;3.00;;;1.90;;
19231;SDS011;9750;48.730;10.294;2024-02-15T05:16:15;4.10;;;2.90;;
19231;SDS011;9750;48.730;10.294;2024-02-15T05:18:42;4.83;;;3.63;;
19231;SDS011;9750;48.730;10.294;2024-02-15T05:21:11;6.60;;;4.50;;
19231;SDS011;9750;48.730;10.294;2024-02-15T05:23:38;5.87;;;4.50;;
19231;SDS011;9750;48.730;10.294;2024-02-15T05:26:08;6.53;;;5.00;;
19231;SDS011;9750;48.730;10.294;2024-02-15T05:28:35;7.67;;;5.77;;
19231;SDS011;9750;48.730;10.294;2024-02-15T05:31:11;6.83;;;5.03;;
19231;SDS011;9750;48.730;10.294;2024-02-15T05:33:41;6.13;;;5.53;;
19231;SDS011;9750;48.730;10.294;2024-02-15T05:36:09;7.23;;;5.37;;
19231;SDS011;9750;48.730;10.294;2024-02-15T05:38:37;8.63;;;5.63;;
19231;SDS011;9750;48.730;10.294;2024-02-15T05:41:05;7.03;;;5.43;;
19231;SDS011;9750;48.730;10.294;2024-02-15T05:43:33;5.77;;;5.03;;
19231;SDS011;9750;48.730;10.294;2024-02-15T05:46:01;5.07;;;3.93;;
19231;SDS011;9750;48.730;10.294;2024-02-15T05:48:30;8.87;;;4.10;;
19231;SDS011;9750;48.730;10.294;2024-02-15T05:51:00;5.10;;;4.60;;
19231;SDS011;9750;48.730;10.294;2024-02-15T05:53:28;5.70;;;4.20;;
19231;SDS011;9750;48.730;10.294;2024-02-15T05:55:55;5.03;;;4.00;;
19231;SDS011;9750;48.730;10.294;2024-02-15T05:58:23;6.03;;;5.07;;
19231;SDS011;9750;48.730;10.294;2024-02-15T06:00:51;6.10;;;4.80;;
19231;SDS011;9750;48.730;10.294;2024-02-15T06:03:19;4.20;;;3.07;;
19231;SDS011;9750;48.730;10.294;2024-02-15T06:09:06;3.43;;;2.30;;
19231;SDS011;9750;48.730;10.294;2024-02-15T06:11:33;3.23;;;1.90;;
19231;SDS011;9750;48.730;10.294;2024-02-15T06:14:02;3.27;;;2.53;;
19231;SDS011;9750;48.730;10.294;2024-02-15T06:16:29;3.30;;;2.83;;
19231;SDS011;9750;48.730;10.294;2024-02-15T06:18:56;7.50;;;3.60;;
19231;SDS011;9750;48.730;10.294;2024-02-15T06:21:24;3.40;;;2.70;;
19231;SDS011;9750;48.730;10.294;2024-02-15T06:23:53;4.30;;;3.30;;
19231;SDS011;9750;48.730;10.294;2024-02-15T06:26:22;8.43;;;6.43;;
19231;SDS011;9750;48.730;10.294;2024-02-15T06:28:49;9.70;;;7.37;;
19231;SDS011;9750;48.730;10.294;2024-02-15T06:31:34;6.33;;;5.73;;
19231;SDS011;9750;48.730;10.294;2024-02-15T06:34:18;5.73;;;5.23;;
19231;SDS011;9750;48.730;10.294;2024-02-15T06:37:03;5.60;;;4.70;;
19231;SDS011;9750;48.730;10.294;2024-02-15T06:39:47;9.43;;;6.17;;
19231;SDS011;9750;48.730;10.294;2024-02-15T06:42:16;8.80;;;7.27;;
19231;SDS011;9750;48.730;10.294;2024-02-15T06:44:45;8.67;;;7.57;;
19231;SDS011;9750;48.730;10.294;2024-02-15T06:47:13;6.73;;;6.00;;
19231;SDS011;9750;48.730;10.294;2024-02-15T06:49:43;5.53;;;4.50;;
19231;SDS011;9750;48.730;10.294;2024-02-15T06:52:15;6.43;;;5.03;;
19231;SDS011;9750;48.730;10.294;2024-02-15T06:54:43;6.73;;;4.63;;
19231;SDS011;9750;48.730;10.294;2024-02-15T06:57:10;6.27;;;4.93;;
19231;SDS011;9750;48.730;10.294;2024-02-15T06:59:39;8.40;;;6.13;;
19231;SDS011;9750;48.730;10.294;2024-02-15T07:02:07;8.83;;;7.97;;
19231;SDS011;9750;48.730;10.294;2024-02-15T07:04:35;7.63;;;6.63;;
19231;SDS011;9750;48.730;10.294;2024-02-15T07:07:02;8.17;;;7.43;;
19231;SDS011;9750;48.730;10.294;2024-02-15T07:09:30;8.13;;;6.50;;
19231;SDS011;9750;48.730;10.294;2024-02-15T07:11:57;7.90;;;6.60;;
19231;SDS011;9750;48.730;10.294;2024-02-15T07:14:24;7.20;;;6.47;;
19231;SDS011;9750;48.730;10.294;2024-02-15T07:16:54;7.63;;;5.40;;
19231;SDS011;9750;48.730;10.294;2024-02-15T07:19:23;7.43;;;5.30;;
19231;SDS011;9750;48.730;10.294;2024-02-15T07:21:52;6.20;;;5.60;;
19231;SDS011;9750;48.730;10.294;2024-02-15T07:24:20;7.03;;;5.67;;
19231;SDS011;9750;48.730;10.294;2024-02-15T07:26:47;11.90;;;10.57;;
19231;SDS011;9750;48.730;10.294;2024-02-15T07:29:17;15.43;;;13.83;;
19231;SDS011;9750;48.730;10.294;2024-02-15T07:31:45;16.60;;;14.87;;
19231;SDS011;9750;48.730;10.294;2024-02-15T07:34:13;14.70;;;13.17;;
19231;SDS011;9750;48.730;10.294;2024-02-15T07:36:42;14.50;;;12.97;;
19231;SDS011;9750;48.730;10.294;2024-02-15T07:39:10;18.77;;;15.93;;
19231;SDS011;9750;48.730;10.294;2024-02-15T07:41:48;16.13;;;14.53;;
19231;SDS011;9750;48.730;10.294;2024-02-15T07:44:15;16.70;;;14.60;;
19231;SDS011;9750;48.730;10.294;2024-02-15T07:46:43;18.47;;;16.53;;
19231;SDS011;9750;48.730;10.294;2024-02-15T07:49:13;19.20;;;16.93;;
19231;SDS011;9750;48.730;10.294;2024-02-15T07:51:41;18.50;;;15.00;;
19231;SDS011;9750;48.730;10.294;2024-02-15T07:54:09;18.03;;;14.10;;
19231;SDS011;9750;48.730;10.294;2024-02-15T07:56:37;17.43;;;15.60;;
19231;SDS011;9750;48.730;10.294;2024-02-15T07:59:04;18.80;;;13.00;;
19231;SDS011;9750;48.730;10.294;2024-02-15T08:01:32;11.90;;;10.00;;
19231;SDS011;9750;48.730;10.294;2024-02-15T08:03:59;7.70;;;7.00;;
19231;SDS011;9750;48.730;10.294;2024-02-15T08:06:28;12.60;;;11.33;;
19231;SDS011;9750;48.730;10.294;2024-02-15T08:08:57;9.47;;;8.53;;
19231;SDS011;9750;48.730;10.294;2024-02-15T08:11:25;7.17;;;6.53;;
19231;SDS011;9750;48.730;10.294;2024-02-15T08:13:53;7.30;;;5.37;;
19231;SDS011;9750;48.730;10.294;2024-02-15T08:16:23;9.07;;;7.00;;
19231;SDS011;9750;48.730;10.294;2024-02-15T08:18:52;10.23;;;6.93;;
19231;SDS011;9750;48.730;10.294;2024-02-15T08:21:24;8.17;;;6.33;;
19231;SDS011;9750;48.730;10.294;2024-02-15T08:23:55;10.43;;;8.70;;
19231;SDS011;9750;48.730;10.294;2024-02-15T08:26:23;8.73;;;7.90;;
19231;SDS011;9750;48.730;10.294;2024-02-15T08:28:50;9.60;;;8.67;;
19231;SDS011;9750;48.730;10.294;2024-02-15T08:31:20;9.23;;;8.20;;
19231;SDS011;9750;48.730;10.294;2024-02-15T08:33:48;8.73;;;7.87;;
19231;SDS011;9750;48.730;10.294;2024-02-15T08:36:30;9.10;;;8.20;;
19231;SDS011;9750;48.730;10.294;2024-02-15T08:38:59;8.20;;;6.83;;
19231;SDS011;9750;48.730;10.294;2024-02-15T08:41:29;6.17;;;5.27;;
19231;SDS011;9750;48.730;10.294;2024-02-15T08:43:56;6.43;;;5.10;;
19231;SDS011;9750;48.730;10.294;2024-02-15T08:46:25;7.07;;;5.40;;
19231;SDS011;9750;48.730;10.294;2024-02-15T08:48:53;6.70;;;5.47;;
19231;SDS011;9750;48.730;10.294;2024-02-15T08:51:20;6.30;;;5.67;;
19231;SDS011;9750;48.730;10.294;2024-02-15T08:53:47;8.97;;;7.83;;
19231;SDS011;9750;48.730;10.294;2024-02-15T08:56:16;9.40;;;8.40;;
19231;SDS011;9750;48.730;10.294;2024-02-15T08:58:43;10.87;;;9.77;;
19231;SDS011;9750;48.730;10.294;2024-02-15T09:01:11;12.47;;;9.43;;
19231;SDS011;9750;48.730;10.294;2024-02-15T09:03:38;13.30;;;9.80;;
19231;SDS011;9750;48.730;10.294;2024-02-15T09:06:06;9.93;;;7.50;;
19231;SDS011;9750;48.730;10.294;2024-02-15T09:08:33;8.80;;;3.27;;
19231;SDS011;9750;48.730;10.294;2024-02-15T09:11:00;2.73;;;2.23;;
19231;SDS011;9750;48.730;10.294;2024-02-15T09:13:29;6.47;;;3.30;;
19231;SDS011;9750;48.730;10.294;2024-02-15T09:15:57;5.70;;;3.00;;
19231;SDS011;9750;48.730;10.294;2024-02-15T09:18:24;4.00;;;2.97;;
19231;SDS011;9750;48.730;10.294;2024-02-15T09:20:52;5.33;;;3.40;;
19231;SDS011;9750;48.730;10.294;2024-02-15T09:23:20;3.53;;;2.73;;
19231;SDS011;9750;48.730;10.294;2024-02-15T09:25:49;4.77;;;3.00;;
19231;SDS011;9750;48.730;10.294;2024-02-15T09:28:17;4.37;;;3.57;;
19231;SDS011;9750;48.730;10.294;2024-02-15T09:30:49;6.67;;;4.13;;
19231;SDS011;9750;48.730;10.294;2024-02-15T09:33:18;4.97;;;4.47;;
19231;SDS011;9750;48.730;10.294;2024-02-15T09:35:46;7.53;;;4.50;;
19231;SDS011;9750;48.730;10.294;2024-02-15T09:38:13;5.73;;;4.17;;
19231;SDS011;9750;48.730;10.294;2024-02-15T09:40:42;4.80;;;4.40;;
19231;SDS011;9750;48.730;10.294;2024-02-15T09:43:10;5.27;;;4.47;;
19231;SDS011;9750;48.730;10.294;2024-02-15T09:45:39;6.97;;;4.50;;
19231;SDS011;9750;48.730;10.294;2024-02-15T09:48:08;5.47;;;4.43;;
19231;SDS011;9750;48.730;10.294;2024-02-15T09:50:39;4.30;;;3.90;;
19231;SDS011;9750;48.730;10.294;2024-02-15T09:53:07;6.63;;;4.73;;
19231;SDS011;9750;48.730;10.294;2024-02-15T09:55:36;4.97;;;4.33;;
19231;SDS011;9750;48.730;10.294;2024-02-15T09:58:06;5.20;;;4.57;;
19231;SDS011;9750;48.730;10.294;2024-02-15T10:00:34;5.27;;;3.80;;
19231;SDS011;9750;48.730;10.294;2024-02-15T10:03:02;7.37;;;3.60;;
19231;SDS011;9750;48.730;10.294;2024-02-15T10:05:34;5.77;;;3.67;;
19231;SDS011;9750;48.730;10.294;2024-02-15T10:08:01;4.50;;;3.93;;
19231;SDS011;9750;48.730;10.294;2024-02-15T10:10:30;5.83;;;4.23;;
19231;SDS011;9750;48.730;10.294;2024-02-15T10:12:59;6.50;;;5.20;;
19231;SDS011;9750;48.730;10.294;2024-02-15T10:15:27;8.77;;;5.03;;
19231;SDS011;9750;48.730;10.294;2024-02-15T10:17:56;6.33;;;4.60;;
19231;SDS011;9750;48.730;10.294;2024-02-15T10:20:25;5.80;;;4.40;;
19231;SDS011;9750;48.730;10.294;2024-02-15T10:22:56;6.53;;;5.00;;
19231;SDS011;9750;48.730;10.294;2024-02-15T10:25:36;5.87;;;4.53;;
19231;SDS011;9750;48.730;10.294;2024-02-15T10:28:04;7.20;;;4.70;;
19231;SDS011;9750;48.730;10.294;2024-02-15T10:30:33;5.20;;;4.20;;
19231;SDS011;9750;48.730;10.294;2024-02-15T10:33:01;6.50;;;4.10;;
19231;SDS011;9750;48.730;10.294;2024-02-15T10:35:28;6.73;;;4.43;;
19231;SDS011;9750;48.730;10.294;2024-02-15T10:38:06;5.93;;;3.97;;
19231;SDS011;9750;48.730;10.294;2024-02-15T10:40:35;4.57;;;3.23;;
19231;SDS011;9750;48.730;10.294;2024-02-15T10:43:03;4.57;;;3.43;;
19231;SDS011;9750;48.730;10.294;2024-02-15T10:45:30;3.87;;;3.20;;
19231;SDS011;9750;48.730;10.294;2024-02-15T10:47:58;3.53;;;2.60;;
19231;SDS011;9750;48.730;10.294;2024-02-15T10:50:25;4.03;;;3.03;;
19231;SDS011;9750;48.730;10.294;2024-02-15T10:52:54;4.63;;;2.60;;
19231;SDS011;9750;48.730;10.294;2024-02-15T10:55:37;3.60;;;2.37;;
19231;SDS011;9750;48.730;10.294;2024-02-15T10:58:07;2.47;;;2.07;;
19231;SDS011;9750;48.730;10.294;2024-02-15T11:00:34;3.57;;;2.00;;
19231;SDS011;9750;48.730;10.294;2024-02-15T11:03:05;2.10;;;1.90;;
19231;SDS011;9750;48.730;10.294;2024-02-15T11:08:56;4.13;;;2.17;;
19231;SDS011;9750;48.730;10.294;2024-02-15T11:11:25;6.10;;;2.70;;
19231;SDS011;9750;48.730;10.294;2024-02-15T11:16:55;2.83;;;2.00;;
19231;SDS011;9750;48.730;10.294;2024-02-15T11:19:41;5.13;;;2.47;;
19231;SDS011;9750;48.730;10.294;2024-02-15T11:22:12;4.23;;;2.13;;
19231;SDS011;9750;48.730;10.294;2024-02-15T11:24:47;4.93;;;2.90;;
19231;SDS011;9750;48.730;10.294;2024-02-15T11:27:27;3.13;;;2.50;;
19231;SDS011;9750;48.730;10.294;2024-02-15T11:29:55;5.10;;;3.10;;
19231;SDS011;9750;48.730;10.294;2024-02-15T11:32:35;4.43;;;2.80;;
19231;SDS011;9750;48.730;10.294;2024-02-15T11:35:05;5.77;;;2.13;;
19231;SDS011;9750;48.730;10.294;2024-02-15T11:37:51;3.30;;;2.43;;
19231;SDS011;9750;48.730;10.294;2024-02-15T11:40:29;2.87;;;2.40;;
19231;SDS011;9750;48.730;10.294;2024-02-15T11:43:49;3.83;;;2.37;;
19231;SDS011;9750;48.730;10.294;2024-02-15T11:46:25;3.47;;;2.03;;
19231;SDS011;9750;48.730;10.294;2024-02-15T11:48:56;5.23;;;2.30;;
19231;SDS011;9750;48.730;10.294;2024-02-15T11:51:24;5.60;;;2.50;;
19231;SDS011;9750;48.730;10.294;2024-02-15T11:53:59;3.70;;;1.70;;
19231;SDS011;9750;48.730;10.294;2024-02-15T11:56:30;1.50;;;1.40;;
19231;SDS011;9750;48.730;10.294;2024-02-15T11:59:03;2.37;;;1.67;;
19231;SDS011;9750;48.730;10.294;2024-02-15T12:01:32;2.40;;;1.60;;
19231;SDS011;9750;48.730;10.294;2024-02-15T12:04:17;5.57;;;1.97;;
19231;SDS011;9750;48.730;10.294;2024-02-15T12:07:03;3.10;;;1.97;;
19231;SDS011;9750;48.730;10.294;2024-02-15T12:09:47;5.03;;;2.50;;
19231;SDS011;9750;48.730;10.294;2024-02-15T12:12:32;4.80;;;2.30;;
19231;SDS011;9750;48.730;10.294;2024-02-15T12:15:18;2.33;;;1.60;;
19231;SDS011;9750;48.730;10.294;2024-02-15T12:18:15;3.13;;;1.90;;
19231;SDS011;9750;48.730;10.294;2024-02-15T12:21:01;2.40;;;2.00;;
19231;SDS011;9750;48.730;10.294;2024-02-15T12:23:29;2.23;;;1.60;;
19231;SDS011;9750;48.730;10.294;2024-02-15T12:25:58;2.67;;;1.90;;
19231;SDS011;9750;48.730;10.294;2024-02-15T12:28:26;2.83;;;1.70;;
19231;SDS011;9750;48.730;10.294;2024-02-15T12:30:56;3.93;;;1.90;;
19231;SDS011;9750;48.730;10.294;2024-02-15T12:33:23;1.97;;;1.77;;
19231;SDS011;9750;48.730;10.294;2024-02-15T12:36:02;5.33;;;2.17;;
19231;SDS011;9750;48.730;10.294;2024-02-15T12:38:31;3.97;;;2.57;;
19231;SDS011;9750;48.730;10.294;2024-02-15T12:40:59;4.47;;;2.47;;
19231;SDS011;9750;48.730;10.294;2024-02-15T12:43:28;3.73;;;2.43;;
19231;SDS011;9750;48.730;10.294;2024-02-15T12:45:59;4.87;;;2.60;;
19231;SDS011;9750;48.730;10.294;2024-02-15T12:48:26;4.63;;;2.63;;
19231;SDS011;9750;48.730;10.294;2024-02-15T12:50:54;3.27;;;2.80;;
19231;SDS011;9750;48.730;10.294;2024-02-15T12:53:22;3.13;;;2.73;;
19231;SDS011;9750;48.730;10.294;2024-02-15T12:55:52;3.00;;;2.30;;
19231;SDS011;9750;48.730;10.294;2024-02-15T12:58:21;3.90;;;2.50;;
19231;SDS011;9750;48.730;10.294;2024-02-15T13:00:49;4.37;;;2.80;;
19231;SDS011;9750;48.730;10.294;2024-02-15T13:03:22;3.37;;;2.50;;
19231;SDS011;9750;48.730;10.294;2024-02-15T13:05:49;3.67;;;2.60;;
19231;SDS011;9750;48.730;10.294;2024-02-15T13:08:17;4.70;;;2.77;;
19231;SDS011;9750;48.730;10.294;2024-02-15T13:10:45;5.50;;;4.20;;
19231;SDS011;9750;48.730;10.294;2024-02-15T13:13:12;5.70;;;4.00;;
19231;SDS011;9750;48.730;10.294;2024-02-15T13:15:41;3.40;;;2.33;;
19231;SDS011;9750;48.730;10.294;2024-02-15T13:18:09;3.93;;;2.80;;
19231;SDS011;9750;48.730;10.294;2024-02-15T13:20:40;6.37;;;4.47;;
19231;SDS011;9750;48.730;10.294;2024-02-15T13:23:08;4.17;;;3.10;;
19231;SDS011;9750;48.730;10.294;2024-02-15T13:25:40;5.80;;;3.00;;
19231;SDS011;9750;48.730;10.294;2024-02-15T13:28:08;3.33;;;2.80;;
19231;SDS011;9750;48.730;10.294;2024-02-15T13:30:38;2.77;;;2.53;;
19231;SDS011;9750;48.730;10.294;2024-02-15T13:33:06;5.30;;;3.03;;
19231;SDS011;9750;48.730;10.294;2024-02-15T13:35:33;3.00;;;2.60;;
19231;SDS011;9750;48.730;10.294;2024-02-15T13:38:03;3.33;;;2.63;;
19231;SDS011;9750;48.730;10.294;2024-02-15T13:40:30;3.43;;;2.40;;
19231;SDS011;9750;48.730;10.294;2024-02-15T13:42:58;3.53;;;2.50;;
19231;SDS011;9750;48.730;10.294;2024-02-15T13:45:29;4.67;;;2.80;;
19231;SDS011;9750;48.730;10.294;2024-02-15T13:47:57;3.87;;;2.70;;
19231;SDS011;9750;48.730;10.294;2024-02-15T13:50:28;4.83;;;2.20;;
19231;SDS011;9750;48.730;10.294;2024-02-15T13:52:56;3.27;;;2.23;;
19231;SDS011;9750;48.730;10.294;2024-02-15T13:55:25;3.57;;;2.60;;
19231;SDS011;9750;48.730;10.294;2024-02-15T13:57:53;6.00;;;2.80;;
19231;SDS011;9750;48.730;10.294;2024-02-15T14:00:22;5.07;;;2.97;;
19231;SDS011;9750;48.730;10.294;2024-02-15T14:02:55;2.90;;;2.37;;
19231;SDS011;9750;48.730;10.294;2024-02-15T14:05:24;4.03;;;2.90;;
19231;SDS011;9750;48.730;10.294;2024-02-15T14:07:54;3.43;;;2.60;;
19231;SDS011;9750;48.730;10.294;2024-02-15T14:10:22;2.80;;;2.50;;
19231;SDS011;9750;48.730;10.294;2024-02-15T14:12:52;4.03;;;2.53;;
19231;SDS011;9750;48.730;10.294;2024-02-15T14:15:23;3.33;;;2.70;;
19231;SDS011;9750;48.730;10.294;2024-02-15T14:17:51;4.57;;;2.70;;
19231;SDS011;9750;48.730;10.294;2024-02-15T14:20:18;3.13;;;2.70;;
19231;SDS011;9750;48.730;10.294;2024-02-15T14:22:46;4.20;;;2.57;;
19231;SDS011;9750;48.730;10.294;2024-02-15T14:25:15;5.43;;;4.17;;
19231;SDS011;9750;48.730;10.294;2024-02-15T14:27:44;3.57;;;3.20;;
19231;SDS011;9750;48.730;10.294;2024-02-15T14:30:13;4.80;;;2.87;;
19231;SDS011;9750;48.730;10.294;2024-02-15T14:32:57;3.80;;;3.40;;
19231;SDS011;9750;48.730;10.294;2024-02-15T14:35:29;5.40;;;3.20;;
19231;SDS011;9750;48.730;10.294;2024-02-15T14:37:59;3.53;;;3.17;;
19231;SDS011;9750;48.730;10.294;2024-02-15T14:40:28;3.60;;;3.07;;
19231;SDS011;9750;48.730;10.294;2024-02-15T14:42:56;5.40;;;3.40;;
19231;SDS011;9750;48.730;10.294;2024-02-15T14:45:24;5.37;;;3.23;;
19231;SDS011;9750;48.730;10.294;2024-02-15T14:47:52;5.07;;;3.10;;
19231;SDS011;9750;48.730;10.294;2024-02-15T14:50:19;3.43;;;2.57;;
19231;SDS011;9750;48.730;10.294;2024-02-15T14:52:49;4.37;;;2.90;;
19231;SDS011;9750;48.730;10.294;2024-02-15T14:55:18;5.63;;;3.13;;
19231;SDS011;9750;48.730;10.294;2024-02-15T14:57:45;5.03;;;2.80;;
19231;SDS011;9750;48.730;10.294;2024-02-15T15:00:14;3.53;;;2.87;;
19231;SDS011;9750;48.730;10.294;2024-02-15T15:02:42;4.77;;;3.17;;
19231;SDS011;9750;48.730;10.294;2024-02-15T15:05:11;4.83;;;2.87;;
19231;SDS011;9750;48.730;10.294;2024-02-15T15:07:56;3.50;;;2.83;;
19231;SDS011;9750;48.730;10.294;2024-02-15T15:10:41;4.13;;;2.80;;
19231;SDS011;9750;48.730;10.294;2024-02-15T15:13:25;4.13;;;2.90;;
19231;SDS011;9750;48.730;10.294;2024-02-15T15:15:54;3.63;;;2.93;;
19231;SDS011;9750;48.730;10.294;2024-02-15T15:18:22;6.17;;;2.90;;
19231;SDS011;9750;48.730;10.294;2024-02-15T15:20:49;3.97;;;3.27;;
19231;SDS011;9750;48.730;10.294;2024-02-15T15:23:16;4.37;;;2.87;;
19231;SDS011;9750;48.730;10.294;2024-02-15T15:25:44;4.60;;;3.03;;
19231;SDS011;9750;48.730;10.294;2024-02-15T15:28:12;5.47;;;3.97;;